sensor_id;sensor_type;location;lat;lon;timestamp;P1;durP1;ratioP1;P2;durP2;ratioP2
43996;SDS011;34318;45.818;15.964;2023-11-21T00:01:32;13.57;;;12.20;;
43996;SDS011;34318;45.818;15.964;2023-11-21T00:04:00;13.95;;;12.27;;
43996;SDS011;34318;45.818;15.964;2023-11-21T00:06:28;13.82;;;11.95;;
43996;SDS011;34318;45.818;15.964;2023-11-21T00:08:56;13.52;;;12.23;;
43996;SDS011;34318;45.818;15.964;2023-11-21T00:11:23;12.98;;;11.27;;
43996;SDS011;34318;45.818;15.964;2023-11-21T00:13:51;12.88;;;11.57;;
43996;SDS011;34318;45.818;15.964;2023-11-21T00:16:18;11.88;;;10.68;;
43996;SDS011;34318;45.818;15.964;2023-11-21T00:18:46;13.52;;;11.40;;
43996;SDS011;34318;45.818;15.964;2023-11-21T00:21:13;12.93;;;11.73;;
43996;SDS011;34318;45.818;15.964;2023-11-21T00:23:40;15.77;;;12.18;;
43996;SDS011;34318;45.818;15.964;2023-11-21T00:26:07;12.52;;;11.23;;
43996;SDS011;34318;45.818;15.964;2023-11-21T00:28:35;13.70;;;11.52;;
43996;SDS011;34318;45.818;15.964;2023-11-21T00:31:02;12.95;;;11.40;;
43996;SDS011;34318;45.818;15.964;2023-11-21T00:33:30;12.85;;;11.02;;
43996;SDS011;34318;45.818;15.964;2023-11-21T00:35:57;12.63;;;11.32;;
43996;SDS011;34318;45.818;15.964;2023-11-21T00:38:25;13.00;;;11.65;;
43996;SDS011;34318;45.818;15.964;2023-11-21T00:40:52;12.52;;;11.32;;
43996;SDS011;34318;45.818;15.964;2023-11-21T00:43:22;13.02;;;11.63;;
43996;SDS011;34318;45.818;15.964;2023-11-21T00:45:50;17.60;;;11.15;;
43996;SDS011;34318;45.818;15.964;2023-11-21T00:48:18;12.20;;;11.02;;
43996;SDS011;34318;45.818;15.964;2023-11-21T00:50:45;12.60;;;11.30;;
43996;SDS011;34318;45.818;15.964;2023-11-21T00:53:12;13.93;;;10.77;;
43996;SDS011;34318;45.818;15.964;2023-11-21T00:55:39;12.20;;;10.48;;
43996;SDS011;34318;45.818;15.964;2023-11-21T00:58:07;12.68;;;11.38;;
43996;SDS011;34318;45.818;15.964;2023-11-21T01:00:34;13.48;;;10.90;;
43996;SDS011;34318;45.818;15.964;2023-11-21T01:03:02;13.00;;;11.43;;
43996;SDS011;34318;45.818;15.964;2023-11-21T01:05:29;11.32;;;10.07;;
43996;SDS011;34318;45.818;15.964;2023-11-21T01:07:56;12.43;;;11.23;;
43996;SDS011;34318;45.818;15.964;2023-11-21T01:10:24;12.15;;;10.88;;
43996;SDS011;34318;45.818;15.964;2023-11-21T01:12:51;12.80;;;10.95;;
43996;SDS011;34318;45.818;15.964;2023-11-21T01:15:18;13.02;;;11.35;;
43996;SDS011;34318;45.818;15.964;2023-11-21T01:17:47;11.50;;;10.30;;
43996;SDS011;34318;45.818;15.964;2023-11-21T01:20:14;13.48;;;10.55;;
43996;SDS011;34318;45.818;15.964;2023-11-21T01:22:42;11.77;;;10.57;;
43996;SDS011;34318;45.818;15.964;2023-11-21T01:25:09;11.82;;;10.63;;
43996;SDS011;34318;45.818;15.964;2023-11-21T01:27:37;12.30;;;11.00;;
43996;SDS011;34318;45.818;15.964;2023-11-21T01:30:04;11.63;;;10.43;;
43996;SDS011;34318;45.818;15.964;2023-11-21T01:32:34;12.68;;;10.93;;
43996;SDS011;34318;45.818;15.964;2023-11-21T01:35:01;11.40;;;10.30;;
43996;SDS011;34318;45.818;15.964;2023-11-21T01:37:28;14.32;;;10.88;;
43996;SDS011;34318;45.818;15.964;2023-11-21T01:39:56;11.88;;;10.65;;
43996;SDS011;34318;45.818;15.964;2023-11-21T01:42:25;12.20;;;11.05;;
43996;SDS011;34318;45.818;15.964;2023-11-21T01:44:55;12.50;;;11.20;;
43996;SDS011;34318;45.818;15.964;2023-11-21T01:47:22;11.70;;;10.55;;
43996;SDS011;34318;45.818;15.964;2023-11-21T01:49:50;12.48;;;10.57;;
43996;SDS011;34318;45.818;15.964;2023-11-21T01:52:17;12.07;;;10.75;;
43996;SDS011;34318;45.818;15.964;2023-11-21T01:54:46;13.15;;;10.93;;
43996;SDS011;34318;45.818;15.964;2023-11-21T01:57:14;10.98;;;9.98;;
43996;SDS011;34318;45.818;15.964;2023-11-21T01:59:42;11.88;;;10.68;;
43996;SDS011;34318;45.818;15.964;2023-11-21T02:02:10;12.55;;;11.35;;
43996;SDS011;34318;45.818;15.964;2023-11-21T02:04:37;10.85;;;9.82;;
43996;SDS011;34318;45.818;15.964;2023-11-21T02:07:04;12.10;;;10.90;;
43996;SDS011;34318;45.818;15.964;2023-11-21T02:09:32;11.43;;;9.95;;
43996;SDS011;34318;45.818;15.964;2023-11-21T02:12:00;12.40;;;11.20;;
43996;SDS011;34318;45.818;15.964;2023-11-21T02:14:30;12.82;;;11.07;;
43996;SDS011;34318;45.818;15.964;2023-11-21T02:16:58;11.48;;;10.48;;
43996;SDS011;34318;45.818;15.964;2023-11-21T02:19:27;10.45;;;9.52;;
43996;SDS011;34318;45.818;15.964;2023-11-21T02:21:57;13.25;;;11.30;;
43996;SDS011;34318;45.818;15.964;2023-11-21T02:24:27;12.85;;;10.88;;
43996;SDS011;34318;45.818;15.964;2023-11-21T02:26:54;11.15;;;10.13;;
43996;SDS011;34318;45.818;15.964;2023-11-21T02:29:22;11.90;;;10.60;;
43996;SDS011;34318;45.818;15.964;2023-11-21T02:31:54;12.20;;;11.05;;
43996;SDS011;34318;45.818;15.964;2023-11-21T02:34:22;10.80;;;9.70;;
43996;SDS011;34318;45.818;15.964;2023-11-21T02:36:51;12.05;;;10.70;;
43996;SDS011;34318;45.818;15.964;2023-11-21T02:39:20;11.25;;;10.15;;
43996;SDS011;34318;45.818;15.964;2023-11-21T02:41:51;11.38;;;10.27;;
43996;SDS011;34318;45.818;15.964;2023-11-21T02:44:18;12.57;;;10.60;;
43996;SDS011;34318;45.818;15.964;2023-11-21T02:46:45;11.13;;;10.00;;
43996;SDS011;34318;45.818;15.964;2023-11-21T02:49:13;11.07;;;9.85;;
43996;SDS011;34318;45.818;15.964;2023-11-21T02:51:40;11.20;;;9.52;;
43996;SDS011;34318;45.818;15.964;2023-11-21T02:54:08;12.88;;;11.27;;
43996;SDS011;34318;45.818;15.964;2023-11-21T02:56:35;11.25;;;10.15;;
43996;SDS011;34318;45.818;15.964;2023-11-21T02:59:03;10.45;;;9.40;;
43996;SDS011;34318;45.818;15.964;2023-11-21T03:01:31;10.68;;;9.68;;
43996;SDS011;34318;45.818;15.964;2023-11-21T03:03:58;10.65;;;9.55;;
43996;SDS011;34318;45.818;15.964;2023-11-21T03:06:26;10.43;;;9.43;;
43996;SDS011;34318;45.818;15.964;2023-11-21T03:08:53;10.70;;;9.77;;
43996;SDS011;34318;45.818;15.964;2023-11-21T03:11:21;10.55;;;9.55;;
43996;SDS011;34318;45.818;15.964;2023-11-21T03:13:48;12.77;;;9.35;;
43996;SDS011;34318;45.818;15.964;2023-11-21T03:16:16;10.30;;;9.32;;
43996;SDS011;34318;45.818;15.964;2023-11-21T03:18:43;9.90;;;9.07;;
43996;SDS011;34318;45.818;15.964;2023-11-21T03:21:11;9.63;;;8.68;;
43996;SDS011;34318;45.818;15.964;2023-11-21T03:23:39;10.45;;;9.48;;
43996;SDS011;34318;45.818;15.964;2023-11-21T03:26:06;10.15;;;9.15;;
43996;SDS011;34318;45.818;15.964;2023-11-21T03:28:39;10.73;;;9.63;;
43996;SDS011;34318;45.818;15.964;2023-11-21T03:31:06;10.43;;;9.32;;
43996;SDS011;34318;45.818;15.964;2023-11-21T03:33:35;10.43;;;9.40;;
43996;SDS011;34318;45.818;15.964;2023-11-21T03:36:03;11.55;;;9.23;;
43996;SDS011;34318;45.818;15.964;2023-11-21T03:38:30;11.05;;;10.05;;
43996;SDS011;34318;45.818;15.964;2023-11-21T03:40:57;9.43;;;8.52;;
43996;SDS011;34318;45.818;15.964;2023-11-21T03:43:24;9.63;;;8.60;;
43996;SDS011;34318;45.818;15.964;2023-11-21T03:45:51;9.32;;;8.48;;
43996;SDS011;34318;45.818;15.964;2023-11-21T03:48:19;10.30;;;9.32;;
43996;SDS011;34318;45.818;15.964;2023-11-21T03:50:46;11.45;;;8.95;;
43996;SDS011;34318;45.818;15.964;2023-11-21T03:53:13;10.32;;;9.32;;
43996;SDS011;34318;45.818;15.964;2023-11-21T03:55:41;9.63;;;8.63;;
43996;SDS011;34318;45.818;15.964;2023-11-21T03:58:08;9.30;;;8.40;;
43996;SDS011;34318;45.818;15.964;2023-11-21T04:00:35;10.82;;;9.73;;
43996;SDS011;34318;45.818;15.964;2023-11-21T04:03:02;9.73;;;8.75;;
43996;SDS011;34318;45.818;15.964;2023-11-21T04:05:31;9.80;;;9.00;;
43996;SDS011;34318;45.818;15.964;2023-11-21T04:07:58;10.35;;;9.35;;
43996;SDS011;34318;45.818;15.964;2023-11-21T04:10:25;10.10;;;9.20;;
43996;SDS011;34318;45.818;15.964;2023-11-21T04:12:53;9.27;;;8.38;;
43996;SDS011;34318;45.818;15.964;2023-11-21T04:15:20;9.70;;;8.70;;
43996;SDS011;34318;45.818;15.964;2023-11-21T04:17:47;10.10;;;9.10;;
43996;SDS011;34318;45.818;15.964;2023-11-21T04:20:15;9.65;;;8.75;;
43996;SDS011;34318;45.818;15.964;2023-11-21T04:22:43;10.02;;;9.02;;
43996;SDS011;34318;45.818;15.964;2023-11-21T04:25:11;9.23;;;8.30;;
43996;SDS011;34318;45.818;15.964;2023-11-21T04:27:42;10.20;;;9.13;;
43996;SDS011;34318;45.818;15.964;2023-11-21T04:30:10;9.93;;;8.93;;
43996;SDS011;34318;45.818;15.964;2023-11-21T04:32:38;10.20;;;9.20;;
43996;SDS011;34318;45.818;15.964;2023-11-21T04:35:05;11.07;;;9.07;;
43996;SDS011;34318;45.818;15.964;2023-11-21T04:37:35;14.70;;;9.55;;
43996;SDS011;34318;45.818;15.964;2023-11-21T04:40:03;9.35;;;8.45;;
43996;SDS011;34318;45.818;15.964;2023-11-21T04:42:34;9.00;;;8.20;;
43996;SDS011;34318;45.818;15.964;2023-11-21T04:45:03;9.35;;;8.45;;
43996;SDS011;34318;45.818;15.964;2023-11-21T04:47:34;9.00;;;8.20;;
43996;SDS011;34318;45.818;15.964;2023-11-21T04:50:02;10.18;;;8.73;;
43996;SDS011;34318;45.818;15.964;2023-11-21T04:52:30;9.13;;;8.32;;
43996;SDS011;34318;45.818;15.964;2023-11-21T04:54:59;8.98;;;8.07;;
43996;SDS011;34318;45.818;15.964;2023-11-21T04:57:28;9.27;;;8.18;;
43996;SDS011;34318;45.818;15.964;2023-11-21T04:59:55;8.70;;;7.90;;
43996;SDS011;34318;45.818;15.964;2023-11-21T05:02:22;9.50;;;8.60;;
43996;SDS011;34318;45.818;15.964;2023-11-21T05:05:01;8.82;;;8.02;;
43996;SDS011;34318;45.818;15.964;2023-11-21T05:07:32;8.68;;;7.80;;
43996;SDS011;34318;45.818;15.964;2023-11-21T05:10:04;8.43;;;7.63;;
43996;SDS011;34318;45.818;15.964;2023-11-21T05:12:34;10.48;;;8.07;;
43996;SDS011;34318;45.818;15.964;2023-11-21T05:15:05;9.25;;;8.30;;
43996;SDS011;34318;45.818;15.964;2023-11-21T05:17:39;8.68;;;7.88;;
43996;SDS011;34318;45.818;15.964;2023-11-21T05:20:10;9.02;;;8.13;;
43996;SDS011;34318;45.818;15.964;2023-11-21T05:22:39;9.13;;;8.23;;
43996;SDS011;34318;45.818;15.964;2023-11-21T05:25:08;11.15;;;7.93;;
43996;SDS011;34318;45.818;15.964;2023-11-21T05:27:37;9.57;;;8.45;;
43996;SDS011;34318;45.818;15.964;2023-11-21T05:30:04;10.85;;;8.60;;
43996;SDS011;34318;45.818;15.964;2023-11-21T05:32:33;15.30;;;9.52;;
43996;SDS011;34318;45.818;15.964;2023-11-21T05:35:00;10.45;;;8.65;;
43996;SDS011;34318;45.818;15.964;2023-11-21T05:37:28;11.10;;;10.00;;
43996;SDS011;34318;45.818;15.964;2023-11-21T05:39:56;12.82;;;8.80;;
43996;SDS011;34318;45.818;15.964;2023-11-21T05:42:23;9.88;;;8.98;;
43996;SDS011;34318;45.818;15.964;2023-11-21T05:44:50;9.70;;;8.82;;
43996;SDS011;34318;45.818;15.964;2023-11-21T05:47:18;9.55;;;8.38;;
43996;SDS011;34318;45.818;15.964;2023-11-21T05:49:45;11.95;;;8.40;;
43996;SDS011;34318;45.818;15.964;2023-11-21T05:52:16;12.15;;;8.18;;
43996;SDS011;34318;45.818;15.964;2023-11-21T05:54:44;9.73;;;8.73;;
43996;SDS011;34318;45.818;15.964;2023-11-21T05:57:12;9.98;;;7.70;;
43996;SDS011;34318;45.818;15.964;2023-11-21T05:59:39;9.90;;;7.80;;
43996;SDS011;34318;45.818;15.964;2023-11-21T06:02:07;9.38;;;8.00;;
43996;SDS011;34318;45.818;15.964;2023-11-21T06:04:34;11.77;;;8.35;;
43996;SDS011;34318;45.818;15.964;2023-11-21T06:07:02;11.63;;;7.95;;
43996;SDS011;34318;45.818;15.964;2023-11-21T06:09:30;10.40;;;7.78;;
43996;SDS011;34318;45.818;15.964;2023-11-21T06:11:57;8.02;;;7.22;;
43996;SDS011;34318;45.818;15.964;2023-11-21T06:14:25;8.20;;;7.40;;
43996;SDS011;34318;45.818;15.964;2023-11-21T06:16:52;10.90;;;7.60;;
43996;SDS011;34318;45.818;15.964;2023-11-21T06:19:19;11.63;;;7.40;;
43996;SDS011;34318;45.818;15.964;2023-11-21T06:21:46;11.57;;;7.55;;
43996;SDS011;34318;45.818;15.964;2023-11-21T06:24:14;9.32;;;7.25;;
43996;SDS011;34318;45.818;15.964;2023-11-21T06:26:42;8.20;;;7.07;;
43996;SDS011;34318;45.818;15.964;2023-11-21T06:29:10;11.57;;;7.53;;
43996;SDS011;34318;45.818;15.964;2023-11-21T06:31:37;7.43;;;6.55;;
43996;SDS011;34318;45.818;15.964;2023-11-21T06:34:07;9.00;;;6.68;;
43996;SDS011;34318;45.818;15.964;2023-11-21T06:36:36;7.57;;;6.78;;
43996;SDS011;34318;45.818;15.964;2023-11-21T06:39:03;8.05;;;7.10;;
43996;SDS011;34318;45.818;15.964;2023-11-21T06:41:33;8.45;;;7.63;;
43996;SDS011;34318;45.818;15.964;2023-11-21T06:44:00;12.23;;;8.60;;
43996;SDS011;34318;45.818;15.964;2023-11-21T06:46:29;11.38;;;9.63;;
43996;SDS011;34318;45.818;15.964;2023-11-21T06:48:56;12.38;;;10.52;;
43996;SDS011;34318;45.818;15.964;2023-11-21T06:51:23;11.93;;;8.63;;
43996;SDS011;34318;45.818;15.964;2023-11-21T06:53:51;12.93;;;11.60;;
43996;SDS011;34318;45.818;15.964;2023-11-21T06:56:18;13.57;;;11.43;;
43996;SDS011;34318;45.818;15.964;2023-11-21T06:58:46;14.45;;;10.25;;
43996;SDS011;34318;45.818;15.964;2023-11-21T07:01:13;12.68;;;11.05;;
43996;SDS011;34318;45.818;15.964;2023-11-21T07:03:41;14.00;;;10.52;;
43996;SDS011;34318;45.818;15.964;2023-11-21T07:06:09;11.32;;;9.80;;
43996;SDS011;34318;45.818;15.964;2023-11-21T07:08:36;13.80;;;9.30;;
43996;SDS011;34318;45.818;15.964;2023-11-21T07:11:03;10.20;;;8.40;;
43996;SDS011;34318;45.818;15.964;2023-11-21T07:13:31;6.72;;;6.13;;
43996;SDS011;34318;45.818;15.964;2023-11-21T07:15:59;5.97;;;5.47;;
43996;SDS011;34318;45.818;15.964;2023-11-21T07:18:26;5.75;;;5.18;;
43996;SDS011;34318;45.818;15.964;2023-11-21T07:20:54;4.75;;;4.32;;
43996;SDS011;34318;45.818;15.964;2023-11-21T07:23:21;5.13;;;4.63;;
43996;SDS011;34318;45.818;15.964;2023-11-21T07:25:49;5.90;;;4.32;;
43996;SDS011;34318;45.818;15.964;2023-11-21T07:28:16;6.10;;;4.72;;
43996;SDS011;34318;45.818;15.964;2023-11-21T07:30:43;5.00;;;4.50;;
43996;SDS011;34318;45.818;15.964;2023-11-21T07:33:11;7.45;;;4.72;;
43996;SDS011;34318;45.818;15.964;2023-11-21T07:35:38;5.80;;;4.50;;
43996;SDS011;34318;45.818;15.964;2023-11-21T07:38:06;6.72;;;4.40;;
43996;SDS011;34318;45.818;15.964;2023-11-21T07:40:33;4.68;;;4.20;;
43996;SDS011;34318;45.818;15.964;2023-11-21T07:43:00;6.20;;;4.45;;
43996;SDS011;34318;45.818;15.964;2023-11-21T07:45:28;5.97;;;5.32;;
43996;SDS011;34318;45.818;15.964;2023-11-21T07:47:55;5.80;;;4.65;;
43996;SDS011;34318;45.818;15.964;2023-11-21T07:50:23;8.27;;;4.88;;
43996;SDS011;34318;45.818;15.964;2023-11-21T07:52:50;9.90;;;5.03;;
43996;SDS011;34318;45.818;15.964;2023-11-21T07:55:18;7.22;;;5.05;;
43996;SDS011;34318;45.818;15.964;2023-11-21T07:57:45;7.28;;;4.05;;
43996;SDS011;34318;45.818;15.964;2023-11-21T08:00:12;5.63;;;4.60;;
43996;SDS011;34318;45.818;15.964;2023-11-21T08:02:41;5.97;;;4.13;;
43996;SDS011;34318;45.818;15.964;2023-11-21T08:05:09;5.38;;;4.45;;
43996;SDS011;34318;45.818;15.964;2023-11-21T08:07:49;6.38;;;4.22;;
43996;SDS011;34318;45.818;15.964;2023-11-21T08:10:17;6.85;;;4.60;;
43996;SDS011;34318;45.818;15.964;2023-11-21T08:12:44;5.13;;;4.63;;
43996;SDS011;34318;45.818;15.964;2023-11-21T08:15:12;6.25;;;4.63;;
43996;SDS011;34318;45.818;15.964;2023-11-21T08:17:39;4.40;;;3.95;;
43996;SDS011;34318;45.818;15.964;2023-11-21T08:20:06;5.70;;;5.03;;
43996;SDS011;34318;45.818;15.964;2023-11-21T08:22:36;4.80;;;4.20;;
43996;SDS011;34318;45.818;15.964;2023-11-21T08:25:07;7.18;;;4.50;;
43996;SDS011;34318;45.818;15.964;2023-11-21T08:27:34;7.38;;;4.65;;
43996;SDS011;34318;45.818;15.964;2023-11-21T08:30:02;5.18;;;4.40;;
43996;SDS011;34318;45.818;15.964;2023-11-21T08:32:30;4.82;;;4.25;;
43996;SDS011;34318;45.818;15.964;2023-11-21T08:35:00;4.75;;;4.07;;
43996;SDS011;34318;45.818;15.964;2023-11-21T08:37:28;6.75;;;4.25;;
43996;SDS011;34318;45.818;15.964;2023-11-21T08:39:57;5.72;;;4.03;;
43996;SDS011;34318;45.818;15.964;2023-11-21T08:42:28;5.85;;;4.10;;
43996;SDS011;34318;45.818;15.964;2023-11-21T08:44:56;5.72;;;4.13;;
43996;SDS011;34318;45.818;15.964;2023-11-21T08:47:27;5.47;;;4.63;;
43996;SDS011;34318;45.818;15.964;2023-11-21T08:49:54;6.47;;;3.90;;
43996;SDS011;34318;45.818;15.964;2023-11-21T08:52:22;7.70;;;4.63;;
43996;SDS011;34318;45.818;15.964;2023-11-21T08:54:50;7.25;;;4.65;;
43996;SDS011;34318;45.818;15.964;2023-11-21T08:57:22;13.25;;;5.13;;
43996;SDS011;34318;45.818;15.964;2023-11-21T08:59:50;13.27;;;5.45;;
43996;SDS011;34318;45.818;15.964;2023-11-21T09:02:22;11.13;;;5.18;;
43996;SDS011;34318;45.818;15.964;2023-11-21T09:04:49;14.07;;;5.15;;
43996;SDS011;34318;45.818;15.964;2023-11-21T09:07:19;9.45;;;4.93;;
43996;SDS011;34318;45.818;15.964;2023-11-21T09:09:47;10.05;;;5.28;;
43996;SDS011;34318;45.818;15.964;2023-11-21T09:12:15;5.80;;;4.57;;
43996;SDS011;34318;45.818;15.964;2023-11-21T09:14:43;9.07;;;5.35;;
43996;SDS011;34318;45.818;15.964;2023-11-21T09:17:10;9.50;;;5.45;;
43996;SDS011;34318;45.818;15.964;2023-11-21T09:19:38;16.65;;;5.70;;
43996;SDS011;34318;45.818;15.964;2023-11-21T09:22:06;9.75;;;5.30;;
43996;SDS011;34318;45.818;15.964;2023-11-21T09:24:33;11.13;;;5.43;;
43996;SDS011;34318;45.818;15.964;2023-11-21T09:27:03;11.85;;;4.85;;
43996;SDS011;34318;45.818;15.964;2023-11-21T09:29:31;7.22;;;5.15;;
43996;SDS011;34318;45.818;15.964;2023-11-21T09:31:59;8.65;;;4.90;;
43996;SDS011;34318;45.818;15.964;2023-11-21T09:34:27;8.02;;;5.30;;
43996;SDS011;34318;45.818;15.964;2023-11-21T09:36:55;11.60;;;5.07;;
43996;SDS011;34318;45.818;15.964;2023-11-21T09:39:22;10.35;;;4.97;;
43996;SDS011;34318;45.818;15.964;2023-11-21T09:41:51;9.60;;;5.43;;
43996;SDS011;34318;45.818;15.964;2023-11-21T09:44:30;8.43;;;4.78;;
43996;SDS011;34318;45.818;15.964;2023-11-21T09:46:59;7.82;;;4.78;;
43996;SDS011;34318;45.818;15.964;2023-11-21T09:49:27;7.63;;;4.47;;
43996;SDS011;34318;45.818;15.964;2023-11-21T09:51:55;9.55;;;4.72;;
43996;SDS011;34318;45.818;15.964;2023-11-21T09:54:23;9.45;;;4.93;;
43996;SDS011;34318;45.818;15.964;2023-11-21T09:56:51;8.65;;;4.70;;
43996;SDS011;34318;45.818;15.964;2023-11-21T09:59:18;9.38;;;5.28;;
43996;SDS011;34318;45.818;15.964;2023-11-21T10:01:47;7.03;;;4.72;;
43996;SDS011;34318;45.818;15.964;2023-11-21T10:04:16;9.68;;;5.20;;
43996;SDS011;34318;45.818;15.964;2023-11-21T10:06:43;6.75;;;4.97;;
43996;SDS011;34318;45.818;15.964;2023-11-21T10:09:14;10.93;;;4.97;;
43996;SDS011;34318;45.818;15.964;2023-11-21T10:11:44;10.93;;;5.22;;
43996;SDS011;34318;45.818;15.964;2023-11-21T10:14:12;10.43;;;5.05;;
43996;SDS011;34318;45.818;15.964;2023-11-21T10:16:41;10.90;;;5.22;;
43996;SDS011;34318;45.818;15.964;2023-11-21T10:19:10;10.57;;;5.57;;
43996;SDS011;34318;45.818;15.964;2023-11-21T10:21:39;9.77;;;4.63;;
43996;SDS011;34318;45.818;15.964;2023-11-21T10:24:07;9.35;;;5.75;;
43996;SDS011;34318;45.818;15.964;2023-11-21T10:26:34;8.70;;;5.18;;
43996;SDS011;34318;45.818;15.964;2023-11-21T10:29:16;13.40;;;5.60;;
43996;SDS011;34318;45.818;15.964;2023-11-21T10:31:44;30.58;;;23.38;;
43996;SDS011;34318;45.818;15.964;2023-11-21T10:34:15;21.48;;;17.38;;
43996;SDS011;34318;45.818;15.964;2023-11-21T10:36:42;28.15;;;21.20;;
43996;SDS011;34318;45.818;15.964;2023-11-21T10:39:14;22.98;;;19.63;;
43996;SDS011;34318;45.818;15.964;2023-11-21T10:41:44;28.75;;;21.50;;
43996;SDS011;34318;45.818;15.964;2023-11-21T10:44:15;32.58;;;22.50;;
43996;SDS011;34318;45.818;15.964;2023-11-21T10:46:48;26.92;;;20.75;;
43996;SDS011;34318;45.818;15.964;2023-11-21T10:49:20;86.53;;;78.15;;
43996;SDS011;34318;45.818;15.964;2023-11-21T10:51:47;61.03;;;54.75;;
43996;SDS011;34318;45.818;15.964;2023-11-21T10:54:19;58.85;;;52.85;;
43996;SDS011;34318;45.818;15.964;2023-11-21T10:56:50;52.30;;;47.05;;
43996;SDS011;34318;45.818;15.964;2023-11-21T10:59:18;71.55;;;64.28;;
43996;SDS011;34318;45.818;15.964;2023-11-21T11:01:47;61.50;;;55.28;;
43996;SDS011;34318;45.818;15.964;2023-11-21T11:04:19;58.20;;;52.45;;
43996;SDS011;34318;45.818;15.964;2023-11-21T11:06:51;57.70;;;51.47;;
43996;SDS011;34318;45.818;15.964;2023-11-21T11:09:19;52.10;;;47.10;;
43996;SDS011;34318;45.818;15.964;2023-11-21T11:11:47;86.35;;;77.93;;
43996;SDS011;34318;45.818;15.964;2023-11-21T11:14:15;75.85;;;68.65;;
43996;SDS011;34318;45.818;15.964;2023-11-21T11:16:44;73.63;;;66.72;;
43996;SDS011;34318;45.818;15.964;2023-11-21T11:19:12;70.53;;;63.85;;
43996;SDS011;34318;45.818;15.964;2023-11-21T11:24:17;68.63;;;61.97;;
43996;SDS011;34318;45.818;15.964;2023-11-21T11:32:03;61.17;;;55.20;;
43996;SDS011;34318;45.818;15.964;2023-11-21T11:34:34;58.45;;;52.63;;
43996;SDS011;34318;45.818;15.964;2023-11-21T11:37:07;58.30;;;52.45;;
43996;SDS011;34318;45.818;15.964;2023-11-21T11:39:35;56.30;;;50.47;;
43996;SDS011;34318;45.818;15.964;2023-11-21T11:42:04;54.03;;;48.60;;
43996;SDS011;34318;45.818;15.964;2023-11-21T11:47:16;55.22;;;49.55;;
43996;SDS011;34318;45.818;15.964;2023-11-21T11:52:44;53.80;;;48.42;;
43996;SDS011;34318;45.818;15.964;2023-11-21T11:55:13;53.42;;;48.28;;
43996;SDS011;34318;45.818;15.964;2023-11-21T11:57:41;54.17;;;49.05;;
43996;SDS011;34318;45.818;15.964;2023-11-21T12:02:40;51.40;;;46.25;;
43996;SDS011;34318;45.818;15.964;2023-11-21T12:05:11;50.03;;;45.22;;
43996;SDS011;34318;45.818;15.964;2023-11-21T12:07:47;50.90;;;45.80;;
43996;SDS011;34318;45.818;15.964;2023-11-21T12:10:15;49.17;;;43.92;;
43996;SDS011;34318;45.818;15.964;2023-11-21T12:12:47;47.05;;;42.55;;
43996;SDS011;34318;45.818;15.964;2023-11-21T12:15:15;48.67;;;43.90;;
43996;SDS011;34318;45.818;15.964;2023-11-21T12:17:43;46.78;;;42.13;;
43996;SDS011;34318;45.818;15.964;2023-11-21T12:20:11;46.60;;;42.22;;
43996;SDS011;34318;45.818;15.964;2023-11-21T12:25:11;71.82;;;55.38;;
43996;SDS011;34318;45.818;15.964;2023-11-21T12:27:42;335.20;;;145.98;;
43996;SDS011;34318;45.818;15.964;2023-11-21T12:30:12;182.40;;;98.30;;
43996;SDS011;34318;45.818;15.964;2023-11-21T12:32:40;156.63;;;93.78;;
43996;SDS011;34318;45.818;15.964;2023-11-21T12:35:08;168.40;;;95.88;;
43996;SDS011;34318;45.818;15.964;2023-11-21T12:37:37;155.00;;;89.75;;
43996;SDS011;34318;45.818;15.964;2023-11-21T12:40:05;152.75;;;92.55;;
43996;SDS011;34318;45.818;15.964;2023-11-21T12:42:34;148.98;;;90.45;;
43996;SDS011;34318;45.818;15.964;2023-11-21T12:45:06;151.18;;;92.38;;
43996;SDS011;34318;45.818;15.964;2023-11-21T12:47:34;153.38;;;93.68;;
43996;SDS011;34318;45.818;15.964;2023-11-21T12:50:02;147.90;;;88.55;;
43996;SDS011;34318;45.818;15.964;2023-11-21T12:52:32;137.93;;;89.35;;
43996;SDS011;34318;45.818;15.964;2023-11-21T12:54:59;136.70;;;87.15;;
43996;SDS011;34318;45.818;15.964;2023-11-21T12:57:27;137.43;;;86.97;;
43996;SDS011;34318;45.818;15.964;2023-11-21T12:59:58;124.63;;;85.22;;
43996;SDS011;34318;45.818;15.964;2023-11-21T13:02:26;130.65;;;84.63;;
43996;SDS011;34318;45.818;15.964;2023-11-21T13:04:54;134.45;;;85.30;;
43996;SDS011;34318;45.818;15.964;2023-11-21T13:07:23;127.75;;;84.10;;
43996;SDS011;34318;45.818;15.964;2023-11-21T13:09:54;121.18;;;81.88;;
43996;SDS011;34318;45.818;15.964;2023-11-21T13:12:24;119.38;;;80.43;;
43996;SDS011;34318;45.818;15.964;2023-11-21T13:14:51;123.38;;;81.72;;
43996;SDS011;34318;45.818;15.964;2023-11-21T13:17:19;114.32;;;80.28;;
43996;SDS011;34318;45.818;15.964;2023-11-21T13:19:50;115.60;;;79.65;;
43996;SDS011;34318;45.818;15.964;2023-11-21T13:22:20;111.90;;;75.85;;
43996;SDS011;34318;45.818;15.964;2023-11-21T13:24:47;110.22;;;73.80;;
43996;SDS011;34318;45.818;15.964;2023-11-21T13:27:14;100.95;;;71.95;;
43996;SDS011;34318;45.818;15.964;2023-11-21T13:29:41;118.38;;;73.45;;
43996;SDS011;34318;45.818;15.964;2023-11-21T13:32:10;110.13;;;75.82;;
43996;SDS011;34318;45.818;15.964;2023-11-21T13:34:40;107.07;;;71.00;;
43996;SDS011;34318;45.818;15.964;2023-11-21T13:37:11;101.63;;;66.60;;
43996;SDS011;34318;45.818;15.964;2023-11-21T13:39:39;96.93;;;66.10;;
43996;SDS011;34318;45.818;15.964;2023-11-21T13:42:11;96.75;;;64.90;;
43996;SDS011;34318;45.818;15.964;2023-11-21T13:44:38;102.18;;;66.13;;
43996;SDS011;34318;45.818;15.964;2023-11-21T13:47:10;92.85;;;62.88;;
43996;SDS011;34318;45.818;15.964;2023-11-21T13:49:37;98.07;;;63.10;;
43996;SDS011;34318;45.818;15.964;2023-11-21T13:52:07;95.25;;;61.53;;
43996;SDS011;34318;45.818;15.964;2023-11-21T13:54:37;93.80;;;60.10;;
43996;SDS011;34318;45.818;15.964;2023-11-21T13:57:04;88.40;;;58.50;;
43996;SDS011;34318;45.818;15.964;2023-11-21T13:59:32;83.13;;;57.70;;
43996;SDS011;34318;45.818;15.964;2023-11-21T14:02:01;81.68;;;55.78;;
43996;SDS011;34318;45.818;15.964;2023-11-21T14:04:43;81.95;;;56.70;;
43996;SDS011;34318;45.818;15.964;2023-11-21T14:07:20;82.68;;;56.88;;
43996;SDS011;34318;45.818;15.964;2023-11-21T14:09:53;79.70;;;56.03;;
43996;SDS011;34318;45.818;15.964;2023-11-21T14:12:21;82.60;;;52.25;;
43996;SDS011;34318;45.818;15.964;2023-11-21T14:14:48;82.75;;;53.33;;
43996;SDS011;34318;45.818;15.964;2023-11-21T14:17:16;75.30;;;51.42;;
43996;SDS011;34318;45.818;15.964;2023-11-21T14:19:43;74.53;;;52.67;;
43996;SDS011;34318;45.818;15.964;2023-11-21T14:22:11;75.45;;;51.25;;
43996;SDS011;34318;45.818;15.964;2023-11-21T14:24:39;73.85;;;49.90;;
43996;SDS011;34318;45.818;15.964;2023-11-21T14:27:13;72.47;;;48.90;;
43996;SDS011;34318;45.818;15.964;2023-11-21T14:29:44;66.30;;;46.22;;
43996;SDS011;34318;45.818;15.964;2023-11-21T14:32:12;68.40;;;48.28;;
43996;SDS011;34318;45.818;15.964;2023-11-21T14:34:41;53.45;;;38.50;;
43996;SDS011;34318;45.818;15.964;2023-11-21T14:37:12;59.72;;;40.00;;
43996;SDS011;34318;45.818;15.964;2023-11-21T14:39:40;66.65;;;42.28;;
43996;SDS011;34318;45.818;15.964;2023-11-21T14:42:11;66.65;;;42.90;;
43996;SDS011;34318;45.818;15.964;2023-11-21T14:44:41;61.90;;;41.78;;